Glenwood, MN (56334)

3:58 PM CST on February 12, 2016 (GMT -0600)
Krueger Compound | | Change Station
CLOSE
Current Station
Personal Weather Station
Location: Glenwood, MN
Elevation: 1293 ft
Nearby Weather Stations

Elev 1293 ft 45.60 °N, 95.42 °W | Updated 3 minutes ago

Clear
Clear
9.7 °F
Feels Like 3 °F
N
3.7
Wind Variable Wind from West

Today
High -- | Low -- °F
--% Chance of Precip.
Yesterday
High -- | Low -- °F
Precip. -- in
Pressure 30.53 in
Visibility 10.0 miles
Clouds Clear
Windchill 3 °F
Dew Point -8 °F
Humidity 43%
Rainfall 0.00 in
Snow Depth Not available.
7:28 AM 5:43 PM
Waxing Crescent, 24% visible
METAR KGHW 122153Z AUTO 32015KT 10SM CLR M16/M23 A3053 RMK AO2
Pressure 30.53 in
Visibility 10.0 miles
Clouds Clear
Windchill 3 °F
Dew Point -8 °F
Humidity 43%
Rainfall 0.00 in
Snow Depth Not available.
7:28 AM 5:43 PM
Waxing Crescent, 24% visible
METAR KGHW 122153Z AUTO 32015KT 10SM CLR M16/M23 A3053 RMK AO2

10-Day Weather Forecast

Almanac

Astronomy

Feb. 12, 2016 Rise Set
Actual Time
Civil Twilight
Nautical Twilight
Astronomical Twilight
Moon
Length of Visible Light
Length of Day
Tomorrow will be .
, % of the Moon is Illuminated

Today's Extremes

State Highs State Lows

Community

WunderPhotos

Upload Photos

1,892,408 photos uploaded!

WunderBlog® & News

Nearby

Air Quality

  Air Quality AQ Index Pollutant
Not available.

Snow Depth

Station Depth Elevation

Earthquake Activity

City Distance Mag. Time & Date
Minimum magnitude displayed is 2.5.

Coastal Water Temperatures

Place Temperature

Stations

Nearby Weather Stations

Station Location Temp. Windchill Dew Point Humidity Wind Precip. Elev Updated Type
                   

Watches & Warnings

There are currently no watches in effect.